sensor_id;sensor_type;location;lat;lon;timestamp;temperature;humidity
33837;DHT22;20140;49.356;8.812;2024-01-30T00:01:02;1.20;99.90
33837;DHT22;20140;49.356;8.812;2024-01-30T00:03:28;1.10;99.90
33837;DHT22;20140;49.356;8.812;2024-01-30T00:05:55;1.00;99.90
33837;DHT22;20140;49.356;8.812;2024-01-30T00:08:20;1.00;99.90
33837;DHT22;20140;49.356;8.812;2024-01-30T00:10:46;1.10;99.90
33837;DHT22;20140;49.356;8.812;2024-01-30T00:13:11;1.10;99.90
33837;DHT22;20140;49.356;8.812;2024-01-30T00:15:39;1.20;99.90
33837;DHT22;20140;49.356;8.812;2024-01-30T00:18:04;1.30;99.90
33837;DHT22;20140;49.356;8.812;2024-01-30T00:20:30;1.30;99.90
33837;DHT22;20140;49.356;8.812;2024-01-30T00:22:55;1.20;99.90
33837;DHT22;20140;49.356;8.812;2024-01-30T00:25:21;1.00;99.90
33837;DHT22;20140;49.356;8.812;2024-01-30T00:27:46;1.00;99.90
33837;DHT22;20140;49.356;8.812;2024-01-30T00:30:12;0.90;99.90
33837;DHT22;20140;49.356;8.812;2024-01-30T00:32:38;1.00;99.90
33837;DHT22;20140;49.356;8.812;2024-01-30T00:35:03;0.90;99.90
33837;DHT22;20140;49.356;8.812;2024-01-30T00:37:29;0.90;99.90
33837;DHT22;20140;49.356;8.812;2024-01-30T00:39:56;1.00;99.90
33837;DHT22;20140;49.356;8.812;2024-01-30T00:42:21;1.00;99.90
33837;DHT22;20140;49.356;8.812;2024-01-30T00:44:49;1.10;99.90
33837;DHT22;20140;49.356;8.812;2024-01-30T00:47:14;1.20;99.90
33837;DHT22;20140;49.356;8.812;2024-01-30T00:49:40;1.10;99.90
33837;DHT22;20140;49.356;8.812;2024-01-30T00:52:05;1.10;99.90
33837;DHT22;20140;49.356;8.812;2024-01-30T00:54:31;1.00;99.90
33837;DHT22;20140;49.356;8.812;2024-01-30T00:56:56;0.70;99.90
33837;DHT22;20140;49.356;8.812;2024-01-30T00:59:22;0.70;99.90
33837;DHT22;20140;49.356;8.812;2024-01-30T01:01:47;0.70;99.90
33837;DHT22;20140;49.356;8.812;2024-01-30T01:04:13;0.80;99.90
33837;DHT22;20140;49.356;8.812;2024-01-30T01:06:39;0.70;99.90
33837;DHT22;20140;49.356;8.812;2024-01-30T01:09:07;0.80;99.90
33837;DHT22;20140;49.356;8.812;2024-01-30T01:11:32;0.80;99.90
33837;DHT22;20140;49.356;8.812;2024-01-30T01:14:01;0.70;99.90
33837;DHT22;20140;49.356;8.812;2024-01-30T01:16:26;0.60;99.90
33837;DHT22;20140;49.356;8.812;2024-01-30T01:18:52;0.60;99.90
33837;DHT22;20140;49.356;8.812;2024-01-30T01:21:17;0.80;99.90
33837;DHT22;20140;49.356;8.812;2024-01-30T01:23:43;0.80;99.90
33837;DHT22;20140;49.356;8.812;2024-01-30T01:26:08;0.70;99.90
33837;DHT22;20140;49.356;8.812;2024-01-30T01:28:35;0.60;99.90
33837;DHT22;20140;49.356;8.812;2024-01-30T01:31:00;0.70;99.90
33837;DHT22;20140;49.356;8.812;2024-01-30T01:33:31;0.60;99.90
33837;DHT22;20140;49.356;8.812;2024-01-30T01:35:58;0.50;99.90
33837;DHT22;20140;49.356;8.812;2024-01-30T01:38:24;0.50;99.90
33837;DHT22;20140;49.356;8.812;2024-01-30T01:40:49;0.50;99.90
33837;DHT22;20140;49.356;8.812;2024-01-30T01:43:15;0.50;99.90
33837;DHT22;20140;49.356;8.812;2024-01-30T01:45:40;0.70;99.90
33837;DHT22;20140;49.356;8.812;2024-01-30T01:48:06;0.50;99.90
33837;DHT22;20140;49.356;8.812;2024-01-30T01:50:33;0.50;99.90
33837;DHT22;20140;49.356;8.812;2024-01-30T01:52:59;0.50;99.90
33837;DHT22;20140;49.356;8.812;2024-01-30T01:55:24;0.60;99.90
33837;DHT22;20140;49.356;8.812;2024-01-30T01:57:53;0.60;99.90
33837;DHT22;20140;49.356;8.812;2024-01-30T02:00:19;0.60;99.90
33837;DHT22;20140;49.356;8.812;2024-01-30T02:02:46;0.50;99.90
33837;DHT22;20140;49.356;8.812;2024-01-30T02:05:12;0.40;99.90
33837;DHT22;20140;49.356;8.812;2024-01-30T02:07:43;0.50;99.90
33837;DHT22;20140;49.356;8.812;2024-01-30T02:10:09;0.50;99.90
33837;DHT22;20140;49.356;8.812;2024-01-30T02:12:35;0.50;99.90
33837;DHT22;20140;49.356;8.812;2024-01-30T02:15:00;0.60;99.90
33837;DHT22;20140;49.356;8.812;2024-01-30T02:17:26;0.50;99.90
33837;DHT22;20140;49.356;8.812;2024-01-30T02:19:52;0.60;99.90
33837;DHT22;20140;49.356;8.812;2024-01-30T02:22:18;0.40;99.90
33837;DHT22;20140;49.356;8.812;2024-01-30T02:24:44;0.40;99.90
33837;DHT22;20140;49.356;8.812;2024-01-30T02:27:10;0.30;99.90
33837;DHT22;20140;49.356;8.812;2024-01-30T02:29:35;0.40;99.90
33837;DHT22;20140;49.356;8.812;2024-01-30T02:32:01;0.40;99.90
33837;DHT22;20140;49.356;8.812;2024-01-30T02:34:26;0.30;99.90
33837;DHT22;20140;49.356;8.812;2024-01-30T02:36:52;0.40;99.90
33837;DHT22;20140;49.356;8.812;2024-01-30T02:39:17;0.40;99.90
33837;DHT22;20140;49.356;8.812;2024-01-30T02:41:43;0.40;99.90
33837;DHT22;20140;49.356;8.812;2024-01-30T02:44:08;0.30;99.90
33837;DHT22;20140;49.356;8.812;2024-01-30T02:46:34;0.30;99.90
33837;DHT22;20140;49.356;8.812;2024-01-30T02:48:59;0.20;99.90
33837;DHT22;20140;49.356;8.812;2024-01-30T02:51:25;0.20;99.90
33837;DHT22;20140;49.356;8.812;2024-01-30T02:53:52;0.30;99.90
33837;DHT22;20140;49.356;8.812;2024-01-30T02:56:18;0.40;99.90
33837;DHT22;20140;49.356;8.812;2024-01-30T02:58:43;0.30;99.90
33837;DHT22;20140;49.356;8.812;2024-01-30T03:01:09;0.40;99.90
33837;DHT22;20140;49.356;8.812;2024-01-30T03:03:34;0.30;99.90
33837;DHT22;20140;49.356;8.812;2024-01-30T03:06:01;0.20;99.90
33837;DHT22;20140;49.356;8.812;2024-01-30T03:08:27;0.10;99.90
33837;DHT22;20140;49.356;8.812;2024-01-30T03:10:53;0.20;99.90
33837;DHT22;20140;49.356;8.812;2024-01-30T03:13:18;0.20;99.90
33837;DHT22;20140;49.356;8.812;2024-01-30T03:15:44;0.30;99.90
33837;DHT22;20140;49.356;8.812;2024-01-30T03:18:09;0.30;99.90
33837;DHT22;20140;49.356;8.812;2024-01-30T03:20:35;0.20;99.90
33837;DHT22;20140;49.356;8.812;2024-01-30T03:23:00;0.20;99.90
33837;DHT22;20140;49.356;8.812;2024-01-30T03:25:26;0.20;99.90
33837;DHT22;20140;49.356;8.812;2024-01-30T03:27:51;-0.10;99.90
33837;DHT22;20140;49.356;8.812;2024-01-30T03:30:17;-0.10;99.90
33837;DHT22;20140;49.356;8.812;2024-01-30T03:32:43;-0.10;99.90
33837;DHT22;20140;49.356;8.812;2024-01-30T03:35:09;0.00;99.90
33837;DHT22;20140;49.356;8.812;2024-01-30T03:37:34;-0.10;99.90
33837;DHT22;20140;49.356;8.812;2024-01-30T03:40:01;-0.20;99.90
33837;DHT22;20140;49.356;8.812;2024-01-30T03:42:27;-0.20;99.90
33837;DHT22;20140;49.356;8.812;2024-01-30T03:44:52;-0.30;99.90
33837;DHT22;20140;49.356;8.812;2024-01-30T03:47:19;-0.30;99.90
33837;DHT22;20140;49.356;8.812;2024-01-30T03:49:45;-0.20;99.90
33837;DHT22;20140;49.356;8.812;2024-01-30T03:52:10;-0.10;99.90
33837;DHT22;20140;49.356;8.812;2024-01-30T03:54:36;0.00;99.90
33837;DHT22;20140;49.356;8.812;2024-01-30T03:57:01;-0.10;99.90
33837;DHT22;20140;49.356;8.812;2024-01-30T03:59:27;0.00;99.90
33837;DHT22;20140;49.356;8.812;2024-01-30T04:01:53;0.00;99.90
33837;DHT22;20140;49.356;8.812;2024-01-30T04:04:18;0.00;99.90
33837;DHT22;20140;49.356;8.812;2024-01-30T04:06:44;0.00;99.90
33837;DHT22;20140;49.356;8.812;2024-01-30T04:09:10;0.00;99.90
33837;DHT22;20140;49.356;8.812;2024-01-30T04:11:36;-0.10;99.90
33837;DHT22;20140;49.356;8.812;2024-01-30T04:14:02;-0.20;99.90
33837;DHT22;20140;49.356;8.812;2024-01-30T04:16:27;-0.20;99.90
33837;DHT22;20140;49.356;8.812;2024-01-30T04:18:53;-0.10;99.90
33837;DHT22;20140;49.356;8.812;2024-01-30T04:21:23;-0.10;99.90
33837;DHT22;20140;49.356;8.812;2024-01-30T04:23:50;-0.20;99.90
33837;DHT22;20140;49.356;8.812;2024-01-30T04:26:15;-0.10;99.90
33837;DHT22;20140;49.356;8.812;2024-01-30T04:28:41;-0.30;99.90
33837;DHT22;20140;49.356;8.812;2024-01-30T04:31:07;-0.30;99.90
33837;DHT22;20140;49.356;8.812;2024-01-30T04:33:33;-0.30;99.90
33837;DHT22;20140;49.356;8.812;2024-01-30T04:35:58;-0.30;99.90
33837;DHT22;20140;49.356;8.812;2024-01-30T04:38:24;-0.20;99.90
33837;DHT22;20140;49.356;8.812;2024-01-30T04:40:49;-0.30;99.90
33837;DHT22;20140;49.356;8.812;2024-01-30T04:43:15;-0.30;99.90
33837;DHT22;20140;49.356;8.812;2024-01-30T04:45:41;-0.30;99.90
33837;DHT22;20140;49.356;8.812;2024-01-30T04:48:07;-0.30;99.90
33837;DHT22;20140;49.356;8.812;2024-01-30T04:50:32;-0.20;99.90
33837;DHT22;20140;49.356;8.812;2024-01-30T04:53:00;-0.10;99.90
33837;DHT22;20140;49.356;8.812;2024-01-30T04:55:25;-0.20;99.90
33837;DHT22;20140;49.356;8.812;2024-01-30T04:57:51;-0.10;99.90
33837;DHT22;20140;49.356;8.812;2024-01-30T05:00:17;-0.10;99.90
33837;DHT22;20140;49.356;8.812;2024-01-30T05:02:42;-0.20;99.90
33837;DHT22;20140;49.356;8.812;2024-01-30T05:05:08;-0.30;99.90
33837;DHT22;20140;49.356;8.812;2024-01-30T05:07:34;-0.30;99.90
33837;DHT22;20140;49.356;8.812;2024-01-30T05:09:59;-0.30;99.90
33837;DHT22;20140;49.356;8.812;2024-01-30T05:12:25;-0.30;99.90
33837;DHT22;20140;49.356;8.812;2024-01-30T05:14:50;-0.20;99.90
33837;DHT22;20140;49.356;8.812;2024-01-30T05:17:16;-0.10;99.90
33837;DHT22;20140;49.356;8.812;2024-01-30T05:19:43;-0.20;99.90
33837;DHT22;20140;49.356;8.812;2024-01-30T05:22:09;-0.20;99.90
33837;DHT22;20140;49.356;8.812;2024-01-30T05:24:35;-0.20;99.90
33837;DHT22;20140;49.356;8.812;2024-01-30T05:27:01;-0.20;99.90
33837;DHT22;20140;49.356;8.812;2024-01-30T05:29:27;-0.20;99.90
33837;DHT22;20140;49.356;8.812;2024-01-30T05:31:52;-0.30;99.90
33837;DHT22;20140;49.356;8.812;2024-01-30T05:34:20;-0.40;99.90
33837;DHT22;20140;49.356;8.812;2024-01-30T05:36:45;-0.50;99.90
33837;DHT22;20140;49.356;8.812;2024-01-30T05:39:11;-0.50;99.90
33837;DHT22;20140;49.356;8.812;2024-01-30T05:41:36;-0.30;99.90
33837;DHT22;20140;49.356;8.812;2024-01-30T05:44:02;-0.30;99.90
33837;DHT22;20140;49.356;8.812;2024-01-30T05:46:27;-0.30;99.90
33837;DHT22;20140;49.356;8.812;2024-01-30T05:48:53;-0.30;99.90
33837;DHT22;20140;49.356;8.812;2024-01-30T05:51:18;-0.30;99.90
33837;DHT22;20140;49.356;8.812;2024-01-30T05:53:44;-0.30;99.90
33837;DHT22;20140;49.356;8.812;2024-01-30T05:56:09;-0.30;99.90
33837;DHT22;20140;49.356;8.812;2024-01-30T05:58:35;-0.30;99.90
33837;DHT22;20140;49.356;8.812;2024-01-30T06:01:03;-0.40;99.90
33837;DHT22;20140;49.356;8.812;2024-01-30T06:03:28;-0.30;99.90
33837;DHT22;20140;49.356;8.812;2024-01-30T06:05:54;-0.30;99.90
33837;DHT22;20140;49.356;8.812;2024-01-30T06:08:19;-0.30;99.90
33837;DHT22;20140;49.356;8.812;2024-01-30T06:10:45;-0.30;99.90
33837;DHT22;20140;49.356;8.812;2024-01-30T06:13:12;-0.30;99.90
33837;DHT22;20140;49.356;8.812;2024-01-30T06:15:38;-0.20;99.90
33837;DHT22;20140;49.356;8.812;2024-01-30T06:18:04;-0.20;99.90
33837;DHT22;20140;49.356;8.812;2024-01-30T06:20:29;-0.10;99.90
33837;DHT22;20140;49.356;8.812;2024-01-30T06:22:58;-0.10;99.90
33837;DHT22;20140;49.356;8.812;2024-01-30T06:25:23;-0.10;99.90
33837;DHT22;20140;49.356;8.812;2024-01-30T06:27:49;-0.10;99.90
33837;DHT22;20140;49.356;8.812;2024-01-30T06:30:14;-0.10;99.90
33837;DHT22;20140;49.356;8.812;2024-01-30T06:32:40;-0.20;99.90
33837;DHT22;20140;49.356;8.812;2024-01-30T06:35:06;-0.30;99.90
33837;DHT22;20140;49.356;8.812;2024-01-30T06:37:32;-0.30;99.90
33837;DHT22;20140;49.356;8.812;2024-01-30T06:39:57;-0.30;99.90
33837;DHT22;20140;49.356;8.812;2024-01-30T06:42:23;-0.30;99.90
33837;DHT22;20140;49.356;8.812;2024-01-30T06:44:48;-0.30;99.90
33837;DHT22;20140;49.356;8.812;2024-01-30T06:47:14;-0.40;99.90
33837;DHT22;20140;49.356;8.812;2024-01-30T06:49:39;-0.40;99.90
33837;DHT22;20140;49.356;8.812;2024-01-30T06:52:07;-0.50;99.90
33837;DHT22;20140;49.356;8.812;2024-01-30T06:54:33;-0.40;99.90
33837;DHT22;20140;49.356;8.812;2024-01-30T06:56:59;-0.40;99.90
33837;DHT22;20140;49.356;8.812;2024-01-30T06:59:24;-0.40;99.90
33837;DHT22;20140;49.356;8.812;2024-01-30T07:01:50;-0.50;99.90
33837;DHT22;20140;49.356;8.812;2024-01-30T07:04:16;-0.30;99.90
33837;DHT22;20140;49.356;8.812;2024-01-30T07:06:42;-0.30;99.90
33837;DHT22;20140;49.356;8.812;2024-01-30T07:09:08;-0.30;99.90
33837;DHT22;20140;49.356;8.812;2024-01-30T07:11:34;-0.30;99.90
33837;DHT22;20140;49.356;8.812;2024-01-30T07:13:59;-0.20;99.90
33837;DHT22;20140;49.356;8.812;2024-01-30T07:16:25;-0.20;99.90
33837;DHT22;20140;49.356;8.812;2024-01-30T07:18:51;-0.10;99.90
33837;DHT22;20140;49.356;8.812;2024-01-30T07:21:16;-0.20;99.90
33837;DHT22;20140;49.356;8.812;2024-01-30T07:23:42;-0.40;99.90
33837;DHT22;20140;49.356;8.812;2024-01-30T07:26:08;-0.50;99.90
33837;DHT22;20140;49.356;8.812;2024-01-30T07:28:34;-0.50;99.90
33837;DHT22;20140;49.356;8.812;2024-01-30T07:31:01;-0.50;99.90
33837;DHT22;20140;49.356;8.812;2024-01-30T07:33:28;-0.60;99.90
33837;DHT22;20140;49.356;8.812;2024-01-30T07:35:54;-0.60;99.90
33837;DHT22;20140;49.356;8.812;2024-01-30T07:38:20;-0.60;99.90
33837;DHT22;20140;49.356;8.812;2024-01-30T07:40:45;-0.60;99.90
33837;DHT22;20140;49.356;8.812;2024-01-30T07:43:11;-0.60;99.90
33837;DHT22;20140;49.356;8.812;2024-01-30T07:45:36;-0.60;99.90
33837;DHT22;20140;49.356;8.812;2024-01-30T07:48:04;-0.40;99.90
33837;DHT22;20140;49.356;8.812;2024-01-30T07:50:30;-0.30;99.90
33837;DHT22;20140;49.356;8.812;2024-01-30T07:52:56;-0.30;99.90
33837;DHT22;20140;49.356;8.812;2024-01-30T07:55:22;-0.20;99.90
33837;DHT22;20140;49.356;8.812;2024-01-30T07:57:53;-0.30;99.90
33837;DHT22;20140;49.356;8.812;2024-01-30T08:00:22;-0.40;99.90
33837;DHT22;20140;49.356;8.812;2024-01-30T08:02:47;-0.40;99.90
33837;DHT22;20140;49.356;8.812;2024-01-30T08:05:13;-0.40;99.90
33837;DHT22;20140;49.356;8.812;2024-01-30T08:07:43;-0.40;99.90
33837;DHT22;20140;49.356;8.812;2024-01-30T08:10:11;-0.30;99.90
33837;DHT22;20140;49.356;8.812;2024-01-30T08:12:37;-0.20;99.90
33837;DHT22;20140;49.356;8.812;2024-01-30T08:15:03;-0.10;99.90
33837;DHT22;20140;49.356;8.812;2024-01-30T08:17:28;-0.10;99.90
33837;DHT22;20140;49.356;8.812;2024-01-30T08:19:54;0.00;99.90
33837;DHT22;20140;49.356;8.812;2024-01-30T08:22:19;0.00;99.90
33837;DHT22;20140;49.356;8.812;2024-01-30T08:24:45;0.10;99.90
33837;DHT22;20140;49.356;8.812;2024-01-30T08:27:10;0.20;99.90
33837;DHT22;20140;49.356;8.812;2024-01-30T08:29:39;0.30;99.90
33837;DHT22;20140;49.356;8.812;2024-01-30T08:32:05;0.20;99.90
33837;DHT22;20140;49.356;8.812;2024-01-30T08:34:33;0.30;99.90
33837;DHT22;20140;49.356;8.812;2024-01-30T08:36:59;0.30;99.90
33837;DHT22;20140;49.356;8.812;2024-01-30T08:39:25;0.40;99.90
33837;DHT22;20140;49.356;8.812;2024-01-30T08:41:52;0.40;99.90
33837;DHT22;20140;49.356;8.812;2024-01-30T08:44:18;0.40;99.90
33837;DHT22;20140;49.356;8.812;2024-01-30T08:46:44;0.50;99.90
33837;DHT22;20140;49.356;8.812;2024-01-30T08:49:11;0.50;99.90
33837;DHT22;20140;49.356;8.812;2024-01-30T08:51:38;0.50;99.90
33837;DHT22;20140;49.356;8.812;2024-01-30T08:54:04;0.60;99.90
33837;DHT22;20140;49.356;8.812;2024-01-30T08:56:29;0.60;99.90
33837;DHT22;20140;49.356;8.812;2024-01-30T08:58:55;0.70;99.90
33837;DHT22;20140;49.356;8.812;2024-01-30T09:01:20;0.70;99.90
33837;DHT22;20140;49.356;8.812;2024-01-30T09:03:46;0.80;99.90
33837;DHT22;20140;49.356;8.812;2024-01-30T09:06:12;0.90;99.90
33837;DHT22;20140;49.356;8.812;2024-01-30T09:08:38;0.90;99.90
33837;DHT22;20140;49.356;8.812;2024-01-30T09:11:14;1.00;99.90
33837;DHT22;20140;49.356;8.812;2024-01-30T09:13:40;1.10;99.90
33837;DHT22;20140;49.356;8.812;2024-01-30T09:16:06;1.10;99.90
33837;DHT22;20140;49.356;8.812;2024-01-30T09:18:31;1.20;99.90
33837;DHT22;20140;49.356;8.812;2024-01-30T09:20:57;1.20;99.90
33837;DHT22;20140;49.356;8.812;2024-01-30T09:23:23;1.40;99.90
33837;DHT22;20140;49.356;8.812;2024-01-30T09:25:48;1.40;99.90
33837;DHT22;20140;49.356;8.812;2024-01-30T09:28:19;1.50;99.90
33837;DHT22;20140;49.356;8.812;2024-01-30T09:30:44;1.60;99.90
33837;DHT22;20140;49.356;8.812;2024-01-30T09:33:10;1.70;99.90
33837;DHT22;20140;49.356;8.812;2024-01-30T09:35:38;1.60;99.90
33837;DHT22;20140;49.356;8.812;2024-01-30T09:38:04;1.60;99.90
33837;DHT22;20140;49.356;8.812;2024-01-30T09:40:29;1.60;99.90
33837;DHT22;20140;49.356;8.812;2024-01-30T09:42:55;1.60;99.90
33837;DHT22;20140;49.356;8.812;2024-01-30T09:45:24;1.90;99.90
33837;DHT22;20140;49.356;8.812;2024-01-30T09:47:50;1.90;99.90
33837;DHT22;20140;49.356;8.812;2024-01-30T09:50:16;2.00;99.90
33837;DHT22;20140;49.356;8.812;2024-01-30T09:52:46;1.90;99.90
33837;DHT22;20140;49.356;8.812;2024-01-30T09:55:11;1.90;99.90
33837;DHT22;20140;49.356;8.812;2024-01-30T09:57:37;1.90;99.90
33837;DHT22;20140;49.356;8.812;2024-01-30T10:00:03;2.00;99.90
33837;DHT22;20140;49.356;8.812;2024-01-30T10:02:31;1.90;99.90
33837;DHT22;20140;49.356;8.812;2024-01-30T10:04:57;2.20;99.90
33837;DHT22;20140;49.356;8.812;2024-01-30T10:07:22;2.30;99.90
33837;DHT22;20140;49.356;8.812;2024-01-30T10:09:48;2.30;99.90
33837;DHT22;20140;49.356;8.812;2024-01-30T10:12:15;2.30;99.90
33837;DHT22;20140;49.356;8.812;2024-01-30T10:14:41;2.40;99.90
33837;DHT22;20140;49.356;8.812;2024-01-30T10:17:11;2.50;99.90
33837;DHT22;20140;49.356;8.812;2024-01-30T10:19:38;2.60;99.90
33837;DHT22;20140;49.356;8.812;2024-01-30T10:22:04;2.80;99.90
33837;DHT22;20140;49.356;8.812;2024-01-30T10:24:30;3.00;99.90
33837;DHT22;20140;49.356;8.812;2024-01-30T10:26:56;3.00;99.90
33837;DHT22;20140;49.356;8.812;2024-01-30T10:29:21;3.00;99.90
33837;DHT22;20140;49.356;8.812;2024-01-30T10:32:01;3.00;99.90
33837;DHT22;20140;49.356;8.812;2024-01-30T10:34:26;3.00;99.90
33837;DHT22;20140;49.356;8.812;2024-01-30T10:37:06;2.90;99.90
33837;DHT22;20140;49.356;8.812;2024-01-30T10:39:37;2.90;99.90
33837;DHT22;20140;49.356;8.812;2024-01-30T10:42:04;2.90;99.90
33837;DHT22;20140;49.356;8.812;2024-01-30T10:44:56;2.90;99.90
33837;DHT22;20140;49.356;8.812;2024-01-30T10:47:27;3.20;99.90
33837;DHT22;20140;49.356;8.812;2024-01-30T10:49:54;3.30;99.90
33837;DHT22;20140;49.356;8.812;2024-01-30T10:52:20;3.30;99.90
33837;DHT22;20140;49.356;8.812;2024-01-30T10:54:46;3.40;99.90
33837;DHT22;20140;49.356;8.812;2024-01-30T10:57:12;3.50;99.90
33837;DHT22;20140;49.356;8.812;2024-01-30T10:59:39;3.60;99.90
33837;DHT22;20140;49.356;8.812;2024-01-30T11:02:05;3.80;99.90
33837;DHT22;20140;49.356;8.812;2024-01-30T11:04:38;4.00;99.90
33837;DHT22;20140;49.356;8.812;2024-01-30T11:07:17;3.90;99.90
33837;DHT22;20140;49.356;8.812;2024-01-30T11:09:53;4.00;99.90
33837;DHT22;20140;49.356;8.812;2024-01-30T11:12:22;4.10;99.90
33837;DHT22;20140;49.356;8.812;2024-01-30T11:14:49;4.20;99.90
33837;DHT22;20140;49.356;8.812;2024-01-30T11:17:15;4.10;99.90
33837;DHT22;20140;49.356;8.812;2024-01-30T11:19:41;4.10;99.90
33837;DHT22;20140;49.356;8.812;2024-01-30T11:22:07;4.50;99.90
33837;DHT22;20140;49.356;8.812;2024-01-30T11:24:40;4.50;99.90
33837;DHT22;20140;49.356;8.812;2024-01-30T11:27:09;4.50;99.90
33837;DHT22;20140;49.356;8.812;2024-01-30T11:29:36;4.50;99.90
33837;DHT22;20140;49.356;8.812;2024-01-30T11:32:02;4.50;99.90
33837;DHT22;20140;49.356;8.812;2024-01-30T11:34:27;4.60;99.90
33837;DHT22;20140;49.356;8.812;2024-01-30T11:36:56;4.70;99.90
33837;DHT22;20140;49.356;8.812;2024-01-30T11:39:26;5.10;99.90
33837;DHT22;20140;49.356;8.812;2024-01-30T11:41:52;5.10;99.90
33837;DHT22;20140;49.356;8.812;2024-01-30T11:44:19;5.10;99.90
33837;DHT22;20140;49.356;8.812;2024-01-30T11:46:50;5.40;99.90
33837;DHT22;20140;49.356;8.812;2024-01-30T11:49:19;5.40;99.90
33837;DHT22;20140;49.356;8.812;2024-01-30T11:51:47;5.30;99.90
33837;DHT22;20140;49.356;8.812;2024-01-30T11:54:17;5.30;99.90
33837;DHT22;20140;49.356;8.812;2024-01-30T11:56:43;5.30;99.90
33837;DHT22;20140;49.356;8.812;2024-01-30T11:59:09;5.40;99.90
33837;DHT22;20140;49.356;8.812;2024-01-30T12:01:34;5.40;99.90
33837;DHT22;20140;49.356;8.812;2024-01-30T12:04:00;5.50;99.90
33837;DHT22;20140;49.356;8.812;2024-01-30T12:06:26;5.40;99.90
33837;DHT22;20140;49.356;8.812;2024-01-30T12:08:59;5.30;99.90
33837;DHT22;20140;49.356;8.812;2024-01-30T12:11:28;5.30;99.90
33837;DHT22;20140;49.356;8.812;2024-01-30T12:13:55;5.30;99.90
33837;DHT22;20140;49.356;8.812;2024-01-30T12:16:21;5.40;99.90
33837;DHT22;20140;49.356;8.812;2024-01-30T12:18:47;5.60;99.90
33837;DHT22;20140;49.356;8.812;2024-01-30T12:21:16;6.00;99.90
33837;DHT22;20140;49.356;8.812;2024-01-30T12:23:42;6.10;99.90
33837;DHT22;20140;49.356;8.812;2024-01-30T12:26:07;6.20;99.90
33837;DHT22;20140;49.356;8.812;2024-01-30T12:28:33;6.30;99.90
33837;DHT22;20140;49.356;8.812;2024-01-30T12:31:02;6.40;99.90
33837;DHT22;20140;49.356;8.812;2024-01-30T12:33:29;6.70;99.90
33837;DHT22;20140;49.356;8.812;2024-01-30T12:35:55;7.10;99.90
33837;DHT22;20140;49.356;8.812;2024-01-30T12:38:21;7.30;99.90
33837;DHT22;20140;49.356;8.812;2024-01-30T12:40:47;7.40;99.90
33837;DHT22;20140;49.356;8.812;2024-01-30T12:43:13;7.50;99.90
33837;DHT22;20140;49.356;8.812;2024-01-30T12:45:41;7.40;99.90
33837;DHT22;20140;49.356;8.812;2024-01-30T12:48:07;7.80;99.90
33837;DHT22;20140;49.356;8.812;2024-01-30T12:50:35;7.60;99.90
33837;DHT22;20140;49.356;8.812;2024-01-30T12:53:01;7.60;99.90
33837;DHT22;20140;49.356;8.812;2024-01-30T12:55:26;7.70;99.90
33837;DHT22;20140;49.356;8.812;2024-01-30T12:57:56;7.70;99.90
33837;DHT22;20140;49.356;8.812;2024-01-30T13:00:22;7.80;99.90
33837;DHT22;20140;49.356;8.812;2024-01-30T13:02:48;7.60;99.90
33837;DHT22;20140;49.356;8.812;2024-01-30T13:05:14;7.70;99.90
33837;DHT22;20140;49.356;8.812;2024-01-30T13:07:39;7.80;99.90
33837;DHT22;20140;49.356;8.812;2024-01-30T13:10:05;7.80;99.90
33837;DHT22;20140;49.356;8.812;2024-01-30T13:12:32;7.80;99.90
33837;DHT22;20140;49.356;8.812;2024-01-30T13:14:58;7.90;99.90
33837;DHT22;20140;49.356;8.812;2024-01-30T13:17:26;7.90;99.90
33837;DHT22;20140;49.356;8.812;2024-01-30T13:19:51;7.90;99.90
33837;DHT22;20140;49.356;8.812;2024-01-30T13:22:17;8.10;99.90
33837;DHT22;20140;49.356;8.812;2024-01-30T13:24:42;8.20;99.90
33837;DHT22;20140;49.356;8.812;2024-01-30T13:27:08;8.20;99.90
33837;DHT22;20140;49.356;8.812;2024-01-30T13:29:34;8.10;99.90
33837;DHT22;20140;49.356;8.812;2024-01-30T13:31:59;8.00;99.90
33837;DHT22;20140;49.356;8.812;2024-01-30T13:34:25;8.00;99.90
33837;DHT22;20140;49.356;8.812;2024-01-30T13:36:50;8.20;99.90
33837;DHT22;20140;49.356;8.812;2024-01-30T13:39:16;8.50;99.90
33837;DHT22;20140;49.356;8.812;2024-01-30T13:41:42;8.90;99.90
33837;DHT22;20140;49.356;8.812;2024-01-30T13:44:07;8.90;99.90
33837;DHT22;20140;49.356;8.812;2024-01-30T13:46:34;9.40;99.90
33837;DHT22;20140;49.356;8.812;2024-01-30T13:48:59;9.70;99.90
33837;DHT22;20140;49.356;8.812;2024-01-30T13:51:25;9.80;99.90
33837;DHT22;20140;49.356;8.812;2024-01-30T13:53:51;10.10;99.90
33837;DHT22;20140;49.356;8.812;2024-01-30T13:56:16;10.10;99.90
33837;DHT22;20140;49.356;8.812;2024-01-30T13:58:42;10.00;99.90
33837;DHT22;20140;49.356;8.812;2024-01-30T14:01:08;9.80;99.90
33837;DHT22;20140;49.356;8.812;2024-01-30T14:03:35;9.60;99.90
33837;DHT22;20140;49.356;8.812;2024-01-30T14:06:00;9.60;99.90
33837;DHT22;20140;49.356;8.812;2024-01-30T14:08:26;9.70;99.90
33837;DHT22;20140;49.356;8.812;2024-01-30T14:10:54;9.70;99.90
33837;DHT22;20140;49.356;8.812;2024-01-30T14:13:20;9.70;99.90
33837;DHT22;20140;49.356;8.812;2024-01-30T14:15:46;9.60;99.90
33837;DHT22;20140;49.356;8.812;2024-01-30T14:18:14;9.70;99.90
33837;DHT22;20140;49.356;8.812;2024-01-30T14:20:40;9.80;99.90
33837;DHT22;20140;49.356;8.812;2024-01-30T14:23:08;9.70;99.90
33837;DHT22;20140;49.356;8.812;2024-01-30T14:25:34;9.50;99.90
33837;DHT22;20140;49.356;8.812;2024-01-30T14:27:59;9.40;99.90
33837;DHT22;20140;49.356;8.812;2024-01-30T14:30:25;9.30;99.90
33837;DHT22;20140;49.356;8.812;2024-01-30T14:32:50;9.40;99.90
33837;DHT22;20140;49.356;8.812;2024-01-30T14:35:16;9.20;99.90
33837;DHT22;20140;49.356;8.812;2024-01-30T14:37:41;9.10;99.90
33837;DHT22;20140;49.356;8.812;2024-01-30T14:40:07;9.30;99.90
33837;DHT22;20140;49.356;8.812;2024-01-30T14:42:33;9.30;99.90
33837;DHT22;20140;49.356;8.812;2024-01-30T14:44:59;9.30;99.90
33837;DHT22;20140;49.356;8.812;2024-01-30T14:47:25;9.30;99.90
33837;DHT22;20140;49.356;8.812;2024-01-30T14:49:51;9.20;99.90
33837;DHT22;20140;49.356;8.812;2024-01-30T14:52:17;9.10;99.90
33837;DHT22;20140;49.356;8.812;2024-01-30T14:54:43;9.10;99.90
33837;DHT22;20140;49.356;8.812;2024-01-30T14:57:09;9.00;99.90
33837;DHT22;20140;49.356;8.812;2024-01-30T14:59:35;9.00;99.90
33837;DHT22;20140;49.356;8.812;2024-01-30T15:02:00;9.00;99.90
33837;DHT22;20140;49.356;8.812;2024-01-30T15:04:26;8.90;99.90
33837;DHT22;20140;49.356;8.812;2024-01-30T15:06:52;8.90;99.90
33837;DHT22;20140;49.356;8.812;2024-01-30T15:09:18;8.80;99.90
33837;DHT22;20140;49.356;8.812;2024-01-30T15:11:44;8.80;99.90
33837;DHT22;20140;49.356;8.812;2024-01-30T15:14:13;8.70;99.90
33837;DHT22;20140;49.356;8.812;2024-01-30T15:16:39;8.60;99.90
33837;DHT22;20140;49.356;8.812;2024-01-30T15:19:04;8.60;99.90
33837;DHT22;20140;49.356;8.812;2024-01-30T15:21:30;8.60;99.90
33837;DHT22;20140;49.356;8.812;2024-01-30T15:23:56;8.80;99.90
33837;DHT22;20140;49.356;8.812;2024-01-30T15:26:22;8.70;99.90
33837;DHT22;20140;49.356;8.812;2024-01-30T15:28:47;8.60;99.90
33837;DHT22;20140;49.356;8.812;2024-01-30T15:31:13;8.50;99.90
33837;DHT22;20140;49.356;8.812;2024-01-30T15:33:38;8.40;99.90
33837;DHT22;20140;49.356;8.812;2024-01-30T15:36:04;8.40;99.90